createdAt,value
2018-01-20T00:02:10.929Z,6.70
2018-01-20T00:04:39.249Z,6.70
2018-01-20T00:07:07.602Z,6.70
2018-01-20T00:09:47.891Z,6.80
2018-01-20T00:12:15.425Z,6.70
2018-01-20T00:14:43.799Z,6.60
2018-01-20T00:17:15.780Z,6.70
2018-01-20T00:19:44.527Z,6.60
2018-01-20T00:22:21.510Z,6.70
2018-01-20T00:24:55.498Z,6.60
2018-01-20T00:27:23.060Z,6.50
2018-01-20T00:29:51.414Z,5.80
2018-01-20T00:32:18.954Z,6.00
2018-01-20T00:34:47.288Z,6.20
2018-01-20T00:37:15.226Z,6.20
2018-01-20T00:39:43.551Z,6.00
2018-01-20T00:42:12.609Z,6.00
2018-01-20T00:44:40.936Z,5.70
2018-01-20T00:47:09.232Z,5.60
2018-01-20T00:49:37.164Z,5.60
2018-01-20T00:52:05.113Z,5.40
2018-01-20T00:54:33.430Z,5.30
2018-01-20T00:57:01.759Z,5.10
2018-01-20T00:59:30.072Z,4.90
2018-01-20T01:01:59.276Z,4.90
2018-01-20T01:04:27.591Z,4.80
2018-01-20T01:06:55.238Z,5.10
2018-01-20T01:09:23.542Z,5.40
2018-01-20T01:11:51.893Z,5.70
2018-01-20T01:14:19.896Z,6.10
2018-01-20T01:16:48.275Z,6.10
2018-01-20T01:19:15.811Z,6.20
2018-01-20T01:21:43.768Z,6.10
2018-01-20T01:24:12.074Z,6.00
2018-01-20T01:26:40.391Z,6.00
2018-01-20T01:29:08.696Z,6.10
2018-01-20T01:31:37.024Z,6.40
2018-01-20T01:34:05.530Z,6.50
2018-01-20T01:36:33.607Z,6.30
2018-01-20T01:39:01.916Z,6.30
2018-01-20T01:41:30.232Z,6.10
2018-01-20T01:43:58.567Z,5.90
2018-01-20T01:46:27.094Z,5.80
2018-01-20T01:48:55.027Z,5.80
2018-01-20T01:51:23.424Z,5.80
2018-01-20T01:53:51.732Z,5.70
2018-01-20T01:56:20.818Z,5.50
2018-01-20T01:58:48.378Z,5.50
2018-01-20T02:01:16.704Z,5.40
2018-01-20T02:03:44.658Z,5.50
2018-01-20T02:06:12.982Z,5.80
2018-01-20T02:08:40.938Z,6.10
2018-01-20T02:11:08.517Z,6.10
2018-01-20T02:13:36.082Z,6.00
2018-01-20T02:16:04.043Z,6.10
2018-01-20T02:18:32.652Z,6.20
2018-01-20T02:21:00.595Z,6.30
2018-01-20T02:23:28.971Z,6.30
2018-01-20T02:25:57.286Z,6.30
2018-01-20T02:28:25.621Z,6.30
2018-01-20T02:30:53.927Z,6.30
2018-01-20T02:33:22.263Z,6.00
2018-01-20T02:35:50.573Z,5.90
2018-01-20T02:38:18.900Z,5.90
2018-01-20T02:40:47.220Z,5.80
2018-01-20T02:43:15.547Z,5.20
2018-01-20T02:45:43.883Z,5.40
2018-01-20T02:48:12.202Z,5.30
2018-01-20T02:50:40.539Z,4.80
2018-01-20T02:53:08.866Z,4.80
2018-01-20T02:55:37.180Z,4.60
2018-01-20T02:58:05.531Z,4.40
2018-01-20T03:00:33.915Z,4.40
2018-01-20T03:03:02.235Z,4.40
2018-01-20T03:05:30.561Z,4.30
2018-01-20T03:07:58.898Z,4.50
2018-01-20T03:10:27.202Z,4.30
2018-01-20T03:12:55.521Z,4.30
2018-01-20T03:15:23.822Z,4.30
2018-01-20T03:17:52.975Z,4.40
2018-01-20T03:20:20.518Z,4.70
2018-01-20T03:22:48.843Z,4.60
2018-01-20T03:25:17.161Z,4.60
2018-01-20T03:27:45.613Z,4.50
2018-01-20T03:30:13.563Z,4.90
2018-01-20T03:32:41.943Z,5.20
2018-01-20T03:35:10.253Z,5.00
2018-01-20T03:37:38.639Z,5.10
2018-01-20T03:40:07.718Z,5.20
2018-01-20T03:42:35.481Z,5.10
2018-01-20T03:45:03.434Z,5.10
2018-01-20T03:47:30.974Z,5.00
2018-01-20T03:49:58.931Z,5.00
2018-01-20T03:52:27.273Z,5.20
2018-01-20T03:54:56.339Z,5.10
2018-01-20T03:57:23.873Z,5.30
2018-01-20T03:59:52.395Z,5.40
2018-01-20T04:02:20.324Z,5.70
2018-01-20T04:04:48.279Z,5.10
2018-01-20T04:07:16.584Z,4.90
2018-01-20T04:09:44.904Z,4.80
2018-01-20T04:12:13.213Z,5.10
2018-01-20T04:14:41.161Z,5.30
2018-01-20T04:17:09.098Z,5.00
2018-01-20T04:19:37.417Z,4.90
2018-01-20T04:22:05.727Z,5.10
2018-01-20T04:24:34.061Z,5.00
2018-01-20T04:27:02.361Z,5.20
2018-01-20T04:29:30.669Z,4.90
2018-01-20T04:31:58.965Z,5.10
2018-01-20T04:34:27.277Z,4.90
2018-01-20T04:36:55.607Z,4.60
2018-01-20T04:39:23.932Z,4.60
2018-01-20T04:41:52.242Z,5.00
2018-01-20T04:44:20.558Z,5.30
2018-01-20T04:46:48.489Z,5.50
2018-01-20T04:49:16.155Z,5.10
2018-01-20T04:51:44.102Z,5.00
2018-01-20T04:54:12.496Z,5.20
2018-01-20T04:56:40.820Z,5.20
2018-01-20T04:59:09.913Z,5.40
2018-01-20T05:01:37.599Z,5.20
2018-01-20T05:04:05.917Z,5.10
2018-01-20T05:06:34.234Z,4.80
2018-01-20T05:09:03.276Z,4.70
2018-01-20T05:11:30.837Z,4.60
2018-01-20T05:13:59.141Z,4.30
2018-01-20T05:16:27.462Z,4.20
2018-01-20T05:18:55.875Z,4.10
2018-01-20T05:21:24.189Z,4.20
2018-01-20T05:23:53.242Z,4.10
2018-01-20T05:26:21.929Z,4.10
2018-01-20T05:28:49.506Z,4.10
2018-01-20T05:31:17.462Z,4.30
2018-01-20T05:33:45.763Z,4.40
2018-01-20T05:36:14.090Z,4.70
2018-01-20T05:38:42.511Z,1.50
2018-01-20T05:41:10.838Z,4.60
2018-01-20T05:43:39.149Z,4.40
2018-01-20T05:46:07.476Z,4.20
2018-01-20T05:48:35.778Z,4.30
2018-01-20T05:51:04.110Z,4.70
2018-01-20T05:53:33.173Z,4.60
2018-01-20T05:56:00.732Z,4.70
2018-01-20T05:58:29.035Z,4.70
2018-01-20T06:00:57.362Z,5.00
2018-01-20T06:03:25.658Z,5.20
2018-01-20T06:05:53.974Z,4.80
2018-01-20T06:08:22.458Z,4.80
2018-01-20T06:10:51.530Z,5.00
2018-01-20T06:13:19.471Z,4.80
2018-01-20T06:15:47.405Z,4.60
2018-01-20T06:18:15.857Z,4.80
2018-01-20T06:20:43.788Z,4.70
2018-01-20T06:23:11.352Z,4.60
2018-01-20T06:25:40.038Z,4.40
2018-01-20T06:28:07.595Z,4.60
2018-01-20T06:30:35.905Z,5.00
2018-01-20T06:33:04.243Z,4.80
2018-01-20T06:35:32.643Z,4.80
2018-01-20T06:38:00.962Z,5.10
2018-01-20T06:40:29.402Z,5.10
2018-01-20T06:42:57.371Z,5.30
2018-01-20T06:45:25.799Z,5.30
2018-01-20T06:47:54.114Z,5.40
2018-01-20T06:50:22.413Z,5.40
2018-01-20T06:52:50.739Z,5.60
2018-01-20T06:55:19.034Z,5.70
2018-01-20T06:57:47.358Z,5.80
2018-01-20T07:00:16.406Z,5.90
2018-01-20T07:02:44.075Z,5.90
2018-01-20T07:05:12.402Z,5.90
2018-01-20T07:07:40.739Z,5.90
2018-01-20T07:10:09.055Z,5.80
2018-01-20T07:12:37.433Z,5.80
2018-01-20T07:15:06.479Z,5.80
2018-01-20T07:17:34.037Z,5.70
2018-01-20T07:20:02.356Z,5.80
2018-01-20T07:22:31.426Z,5.80
2018-01-20T07:24:59.082Z,5.80
2018-01-20T07:27:27.418Z,5.70
2018-01-20T07:29:55.719Z,5.60
2018-01-20T07:32:24.056Z,5.80
2018-01-20T07:34:52.364Z,5.80
2018-01-20T07:37:20.351Z,6.00
2018-01-20T07:39:48.681Z,6.00
2018-01-20T07:42:16.220Z,6.10
2018-01-20T07:44:44.175Z,6.10
2018-01-20T07:47:12.497Z,6.10
2018-01-20T07:49:40.814Z,6.10
2018-01-20T07:52:09.135Z,6.30
2018-01-20T07:54:37.465Z,6.30
2018-01-20T07:57:05.773Z,6.30
2018-01-20T07:59:34.119Z,6.40
2018-01-20T08:02:02.431Z,6.40
2018-01-20T08:04:31.537Z,6.40
2018-01-20T08:06:59.113Z,6.20
2018-01-20T08:09:27.443Z,6.30
2018-01-20T08:11:56.370Z,6.40
2018-01-20T08:14:25.229Z,6.50
2018-01-20T08:16:52.768Z,6.30
2018-01-20T08:19:21.462Z,6.20
2018-01-20T08:21:49.766Z,6.30
2018-01-20T08:24:17.326Z,6.10
2018-01-20T08:26:45.630Z,6.10
2018-01-20T08:29:13.973Z,6.20
2018-01-20T08:31:42.286Z,6.40
2018-01-20T08:34:10.613Z,6.40
2018-01-20T08:36:38.925Z,6.30
2018-01-20T08:39:06.491Z,6.50
2018-01-20T08:41:34.041Z,6.80
2018-01-20T08:44:02.376Z,6.90
2018-01-20T08:46:29.918Z,7.10
2018-01-20T08:48:57.949Z,7.00
2018-01-20T08:51:26.409Z,6.90
2018-01-20T08:53:54.366Z,6.60
2018-01-20T08:56:22.777Z,6.70
2018-01-20T08:58:51.102Z,6.80
2018-01-20T09:01:19.400Z,6.70
2018-01-20T09:03:47.709Z,6.50
2018-01-20T09:06:16.119Z,6.60
2018-01-20T09:08:44.545Z,6.60
2018-01-20T09:11:12.861Z,6.70
2018-01-20T09:13:41.183Z,6.80
2018-01-20T09:16:10.278Z,7.00
2018-01-20T09:18:37.805Z,7.10
2018-01-20T09:21:06.122Z,7.10
2018-01-20T09:23:34.424Z,6.90
2018-01-20T09:26:02.737Z,6.90
2018-01-20T09:28:31.043Z,7.00
2018-01-20T09:30:59.369Z,6.60
2018-01-20T09:33:27.664Z,6.70
2018-01-20T09:35:55.986Z,6.90
2018-01-20T09:38:24.389Z,6.70
2018-01-20T09:40:52.700Z,6.60
2018-01-20T09:43:21.006Z,6.60
2018-01-20T09:45:49.329Z,6.60
2018-01-20T09:48:17.632Z,6.70
2018-01-20T09:50:45.956Z,6.30
2018-01-20T09:53:14.265Z,6.10
2018-01-20T09:55:42.669Z,6.20
2018-01-20T09:58:10.969Z,6.00
2018-01-20T10:00:39.292Z,5.90
2018-01-20T10:03:07.600Z,6.00
2018-01-20T10:05:35.949Z,6.00
2018-01-20T10:08:04.246Z,6.10
2018-01-20T10:10:32.565Z,6.10
2018-01-20T10:13:00.983Z,6.40
2018-01-20T10:15:29.294Z,6.00
2018-01-20T10:17:58.327Z,5.80
2018-01-20T10:20:26.642Z,5.80
2018-01-20T10:22:54.194Z,5.90
2018-01-20T10:25:22.494Z,5.90
2018-01-20T10:27:51.552Z,6.10
2018-01-20T10:30:19.161Z,6.20
2018-01-20T10:32:47.483Z,6.30
2018-01-20T10:35:15.801Z,6.30
2018-01-20T10:37:43.358Z,6.40
2018-01-20T10:40:11.361Z,6.10
2018-01-20T10:42:39.687Z,6.10
2018-01-20T10:45:08.011Z,6.20
2018-01-20T10:47:36.375Z,6.20
2018-01-20T10:50:04.824Z,6.20
2018-01-20T10:52:33.135Z,6.20
2018-01-20T10:55:02.192Z,6.50
2018-01-20T10:57:29.751Z,6.40
2018-01-20T10:59:58.053Z,6.50
2018-01-20T11:02:26.366Z,6.40
2018-01-20T11:04:54.721Z,6.40
2018-01-20T11:07:23.067Z,6.30
2018-01-20T11:09:51.480Z,6.50
2018-01-20T11:12:19.845Z,6.60
2018-01-20T11:14:48.150Z,6.50
2018-01-20T11:17:16.471Z,6.60
2018-01-20T11:19:44.774Z,6.80
2018-01-20T11:22:13.090Z,6.90
2018-01-20T11:24:41.389Z,7.10
2018-01-20T11:27:08.946Z,7.10
2018-01-20T11:29:36.874Z,7.10
2018-01-20T11:32:05.205Z,7.00
2018-01-20T11:34:33.511Z,7.10
2018-01-20T11:37:01.838Z,7.10
2018-01-20T11:39:29.774Z,7.10
2018-01-20T11:41:58.199Z,7.10
2018-01-20T11:44:26.143Z,7.10
2018-01-20T11:46:53.726Z,6.90
2018-01-20T11:49:22.108Z,7.00
2018-01-20T11:51:50.411Z,7.20
2018-01-20T11:54:18.759Z,7.30
2018-01-20T11:56:46.309Z,7.30
2018-01-20T11:59:14.268Z,7.10
2018-01-20T12:01:42.578Z,6.80
2018-01-20T12:04:10.907Z,6.70
2018-01-20T12:06:39.287Z,6.70
2018-01-20T12:09:07.638Z,6.60
2018-01-20T12:11:37.205Z,7.00
2018-01-20T12:14:05.531Z,7.10
2018-01-20T12:16:34.575Z,6.90
2018-01-20T12:19:02.142Z,6.80
2018-01-20T12:21:30.516Z,7.00
2018-01-20T12:23:58.121Z,6.90
2018-01-20T12:26:26.138Z,6.90
2018-01-20T12:28:54.470Z,7.00
2018-01-20T12:31:22.844Z,7.40
2018-01-20T12:33:50.873Z,7.70
2018-01-20T12:36:19.252Z,7.80
2018-01-20T12:38:47.561Z,7.50
2018-01-20T12:41:15.907Z,7.40
2018-01-20T12:43:44.222Z,7.30
2018-01-20T12:46:11.752Z,7.10
2018-01-20T12:48:40.447Z,7.30
2018-01-20T12:51:08.002Z,7.40
2018-01-20T12:53:36.318Z,7.10
2018-01-20T12:56:05.362Z,7.00
2018-01-20T12:58:32.924Z,7.10
2018-01-20T13:01:01.298Z,7.20
2018-01-20T13:03:29.678Z,7.40
2018-01-20T13:05:57.977Z,7.60
2018-01-20T13:08:25.535Z,7.70
2018-01-20T13:10:53.481Z,8.00
2018-01-20T13:13:21.789Z,8.00
2018-01-20T13:15:50.138Z,7.90
2018-01-20T13:18:18.457Z,7.90
2018-01-20T13:20:47.498Z,8.00
2018-01-20T13:23:15.049Z,7.80
2018-01-20T13:25:43.048Z,7.60
2018-01-20T13:28:10.574Z,7.80
2018-01-20T13:30:38.897Z,7.90
2018-01-20T13:33:07.190Z,8.00
2018-01-20T13:35:35.501Z,7.80
2018-01-20T13:38:03.803Z,7.30
2018-01-20T13:40:32.182Z,7.40
2018-01-20T13:42:59.706Z,7.20
2018-01-20T13:45:27.654Z,7.20
2018-01-20T13:47:56.699Z,7.10
2018-01-20T13:50:24.365Z,7.00
2018-01-20T13:52:52.682Z,7.10
2018-01-20T13:55:21.020Z,7.20
2018-01-20T13:57:49.318Z,7.40
2018-01-20T14:00:16.866Z,7.30
2018-01-20T14:02:44.791Z,7.10
2018-01-20T14:05:13.331Z,7.20
2018-01-20T14:07:41.735Z,7.00
2018-01-20T14:10:10.798Z,6.90
2018-01-20T14:12:39.481Z,7.00
2018-01-20T14:15:07.845Z,7.10
2018-01-20T14:17:36.223Z,7.20
2018-01-20T14:20:04.550Z,7.00
2018-01-20T14:22:32.849Z,7.20
2018-01-20T14:25:01.257Z,7.60
2018-01-20T14:27:28.788Z,7.70
2018-01-20T14:29:56.742Z,7.80
2018-01-20T14:32:25.056Z,7.70
2018-01-20T14:34:53.376Z,7.70
2018-01-20T14:37:22.754Z,7.80
2018-01-20T14:39:50.718Z,7.70
2018-01-20T14:42:18.371Z,7.60
2018-01-20T14:44:46.692Z,7.20
2018-01-20T14:47:15.027Z,7.40
2018-01-20T14:49:43.408Z,7.20
2018-01-20T14:52:11.785Z,7.10
2018-01-20T14:54:39.330Z,7.10
2018-01-20T14:57:07.285Z,7.30
2018-01-20T14:59:35.573Z,7.20
2018-01-20T15:02:03.919Z,7.10
2018-01-20T15:04:32.213Z,7.30
2018-01-20T15:07:00.562Z,7.50
2018-01-20T15:09:29.007Z,7.60
2018-01-20T15:11:57.322Z,7.30
2018-01-20T15:14:25.625Z,7.30
2018-01-20T15:16:54.036Z,7.20
2018-01-20T15:19:22.338Z,7.20
2018-01-20T15:21:50.803Z,7.40
2018-01-20T15:24:19.094Z,7.50
2018-01-20T15:26:47.414Z,7.50
2018-01-20T15:29:15.729Z,7.40
2018-01-20T15:31:44.101Z,7.40
2018-01-20T15:34:12.480Z,7.50
2018-01-20T15:36:40.803Z,7.50
2018-01-20T15:39:09.152Z,7.30
2018-01-20T15:41:37.490Z,7.30
2018-01-20T15:44:06.017Z,7.40
2018-01-20T15:46:34.378Z,7.50
2018-01-20T15:49:02.716Z,7.50
2018-01-20T15:51:31.025Z,7.40
2018-01-20T15:53:59.473Z,7.60
2018-01-20T15:56:27.794Z,7.50
2018-01-20T15:58:56.180Z,7.60
2018-01-20T16:01:24.576Z,7.70
2018-01-20T16:03:52.985Z,7.60
2018-01-20T16:06:21.285Z,7.30
2018-01-20T16:08:49.608Z,7.30
2018-01-20T16:11:17.898Z,7.40
2018-01-20T16:13:46.217Z,10.00
2018-01-20T16:16:14.550Z,7.30
2018-01-20T16:18:42.885Z,7.40
2018-01-20T16:21:11.193Z,7.20
2018-01-20T16:23:39.649Z,7.00
2018-01-20T16:26:07.954Z,7.00
2018-01-20T16:28:36.382Z,6.80
2018-01-20T16:31:04.732Z,6.80
2018-01-20T16:33:33.064Z,7.00
2018-01-20T16:36:01.357Z,7.10
2018-01-20T16:38:29.669Z,7.20
2018-01-20T16:40:57.970Z,7.40
2018-01-20T16:43:25.910Z,7.30
2018-01-20T16:45:54.209Z,7.10
2018-01-20T16:48:21.817Z,7.00
2018-01-20T16:50:50.202Z,7.00
2018-01-20T16:53:18.550Z,7.20
2018-01-20T16:55:46.851Z,7.00
2018-01-20T16:58:15.174Z,7.10
2018-01-20T17:00:43.521Z,7.10
2018-01-20T17:03:11.872Z,7.10
2018-01-20T17:05:40.233Z,7.00
2018-01-20T17:08:08.615Z,7.10
2018-01-20T17:10:36.905Z,6.70
2018-01-20T17:13:05.378Z,6.50
2018-01-20T17:15:33.675Z,6.60
2018-01-20T17:18:02.062Z,6.80
2018-01-20T17:20:30.387Z,6.90
2018-01-20T17:22:58.708Z,7.10
2018-01-20T17:25:27.059Z,7.10
2018-01-20T17:27:55.438Z,6.60
2018-01-20T17:30:23.750Z,6.50
2018-01-20T17:32:52.202Z,6.20
2018-01-20T17:35:20.493Z,6.40
2018-01-20T17:37:48.805Z,6.30
2018-01-20T17:40:17.168Z,6.10
2018-01-20T17:42:45.489Z,6.00
2018-01-20T17:45:13.822Z,6.20
2018-01-20T17:47:41.367Z,6.40
2018-01-20T17:50:09.361Z,6.10
2018-01-20T17:52:38.404Z,6.20
2018-01-20T17:55:05.965Z,6.30
2018-01-20T17:57:34.261Z,6.30
2018-01-20T18:00:02.692Z,6.30
2018-01-20T18:02:31.076Z,6.10
2018-01-20T18:04:59.479Z,6.20
2018-01-20T18:07:27.778Z,6.40
2018-01-20T18:09:56.090Z,6.50
2018-01-20T18:12:24.410Z,6.30
2018-01-20T18:14:52.717Z,6.30
2018-01-20T18:17:21.019Z,6.10
2018-01-20T18:19:49.329Z,6.00
2018-01-20T18:22:17.301Z,6.10
2018-01-20T18:24:45.248Z,6.10
2018-01-20T18:27:13.177Z,6.10
2018-01-20T18:29:41.539Z,6.10
2018-01-20T18:32:09.837Z,6.10
2018-01-20T18:34:38.193Z,6.00
2018-01-20T18:37:06.683Z,6.10
2018-01-20T18:39:35.049Z,6.10
2018-01-20T18:42:03.410Z,6.00
2018-01-20T18:44:31.722Z,6.00
2018-01-20T18:47:00.179Z,6.00
2018-01-20T18:49:28.161Z,6.00
2018-01-20T18:51:56.625Z,6.00
2018-01-20T18:54:24.924Z,6.00
2018-01-20T18:56:53.297Z,6.00
2018-01-20T18:59:21.664Z,6.00
2018-01-20T19:01:49.979Z,5.70
2018-01-20T19:04:18.432Z,5.70
2018-01-20T19:06:46.745Z,5.70
2018-01-20T19:09:15.320Z,5.60
2018-01-20T19:11:44.400Z,5.50
2018-01-20T19:14:12.030Z,5.60
2018-01-20T19:16:40.052Z,5.70
2018-01-20T19:19:08.409Z,5.80
2018-01-20T19:21:36.725Z,5.90
2018-01-20T19:24:05.080Z,6.00
2018-01-20T19:26:33.487Z,6.00
2018-01-20T19:29:01.882Z,6.10
2018-01-20T19:31:30.384Z,6.00
2018-01-20T19:33:58.724Z,6.10
2018-01-20T19:36:27.105Z,6.10
2018-01-20T19:38:55.456Z,6.00
2018-01-20T19:41:23.774Z,6.00
2018-01-20T19:43:52.144Z,6.10
2018-01-20T19:46:20.458Z,6.10
2018-01-20T19:48:48.801Z,6.20
2018-01-20T19:51:17.341Z,6.20
2018-01-20T19:53:45.704Z,6.10
2018-01-20T19:56:14.045Z,6.10
2018-01-20T19:58:42.016Z,6.20
2018-01-20T20:01:10.016Z,6.00
2018-01-20T20:03:37.597Z,6.10
2018-01-20T20:06:06.673Z,6.10
2018-01-20T20:08:34.232Z,6.20
2018-01-20T20:11:02.617Z,6.10
2018-01-20T20:13:30.978Z,6.20
2018-01-20T20:15:59.346Z,6.20
2018-01-20T20:18:27.698Z,6.20
2018-01-20T20:20:56.107Z,6.10
2018-01-20T20:23:24.442Z,6.10
2018-01-20T20:25:52.732Z,6.20
2018-01-20T20:28:21.101Z,5.90
2018-01-20T20:30:49.451Z,5.60
2018-01-20T20:33:17.762Z,5.80
2018-01-20T20:35:46.061Z,5.90
2018-01-20T20:38:14.416Z,5.90
2018-01-20T20:40:42.761Z,5.90
2018-01-20T20:43:11.869Z,6.10
2018-01-20T20:45:39.932Z,6.20
2018-01-20T20:48:07.941Z,6.20
2018-01-20T20:50:36.238Z,6.20
2018-01-20T20:53:04.595Z,6.30
2018-01-20T20:55:32.948Z,6.30
2018-01-20T20:58:01.336Z,6.40
2018-01-20T21:00:29.713Z,6.40
2018-01-20T21:02:58.068Z,6.40
2018-01-20T21:05:26.518Z,6.30
2018-01-20T21:07:55.206Z,6.40
2018-01-20T21:10:22.868Z,6.40
2018-01-20T21:12:51.371Z,6.40
2018-01-20T21:15:19.728Z,6.30
2018-01-20T21:17:48.110Z,6.40
2018-01-20T21:20:16.457Z,6.30
2018-01-20T21:22:44.534Z,6.30
2018-01-20T21:25:12.933Z,6.30
2018-01-20T21:27:41.254Z,6.40
2018-01-20T21:30:09.612Z,6.30
2018-01-20T21:32:37.928Z,6.30
2018-01-20T21:35:06.452Z,6.20
2018-01-20T21:37:34.924Z,6.30
2018-01-20T21:40:03.306Z,6.30
2018-01-20T21:42:31.350Z,6.30
2018-01-20T21:44:59.957Z,6.30
2018-01-20T21:47:28.453Z,6.40
2018-01-20T21:49:58.354Z,6.30
2018-01-20T21:52:26.374Z,6.30
2018-01-20T21:54:54.775Z,6.30
2018-01-20T21:57:22.358Z,6.30
2018-01-20T21:59:50.724Z,6.40
2018-01-20T22:02:18.308Z,6.40
2018-01-20T22:04:46.287Z,6.40
2018-01-20T22:07:13.910Z,6.50
2018-01-20T22:09:41.545Z,6.50
2018-01-20T22:12:09.117Z,6.30
2018-01-20T22:14:36.741Z,6.30
2018-01-20T22:17:05.090Z,6.30
2018-01-20T22:19:33.308Z,6.30
2018-01-20T22:22:00.998Z,6.30
2018-01-20T22:24:28.631Z,6.20
2018-01-20T22:26:56.238Z,6.40
2018-01-20T22:29:23.896Z,6.40
2018-01-20T22:31:52.998Z,6.40
2018-01-20T22:34:20.624Z,6.40
2018-01-20T22:36:48.182Z,6.40
2018-01-20T22:39:16.534Z,6.40
2018-01-20T22:41:44.892Z,6.40
2018-01-20T22:44:12.451Z,6.40
2018-01-20T22:46:40.762Z,6.40
2018-01-20T22:49:08.321Z,6.50
2018-01-20T22:51:35.946Z,6.50
2018-01-20T22:54:03.579Z,6.50
2018-01-20T22:56:31.170Z,6.50
2018-01-20T22:58:59.511Z,6.40
2018-01-20T23:01:27.050Z,6.40
2018-01-20T23:03:54.636Z,6.40
2018-01-20T23:06:22.251Z,6.40
2018-01-20T23:08:49.844Z,6.50
2018-01-20T23:11:17.444Z,6.50
2018-01-20T23:13:45.008Z,6.50
2018-01-20T23:16:13.337Z,6.40
2018-01-20T23:18:40.882Z,6.40
2018-01-20T23:21:08.433Z,6.20
2018-01-20T23:23:35.975Z,6.10
2018-01-20T23:26:04.286Z,6.30
2018-01-20T23:28:31.806Z,6.30
2018-01-20T23:31:00.152Z,6.20
2018-01-20T23:33:29.284Z,6.30
2018-01-20T23:35:57.610Z,6.30
2018-01-20T23:38:26.285Z,6.30
2018-01-20T23:40:54.254Z,5.90
2018-01-20T23:43:22.016Z,5.70
2018-01-20T23:45:49.620Z,5.50
2018-01-20T23:48:17.969Z,5.30
2018-01-20T23:50:45.572Z,5.30
2018-01-20T23:53:13.916Z,5.30
2018-01-20T23:55:41.872Z,5.40
2018-01-20T23:58:09.435Z,5.50
